Time;durP1;ratioP1;P1;durP2;ratioP2;P2;SDS_P1;SDS_P2;PMS_P1;PMS_P2;Temp;Humidity;BMP_temperature;BMP_pressure;BME280_temperature;BME280_humidity;BME280_pressure;Samples;Min_cycle;Max_cycle;Signal;HPM_P1;HPM_P2
2022/04/22 00:00:37;;;;;;;36.55;16.17;;;;;;;7.20;100.00;98359.91;4400052;32;20031;-78
2022/04/22 00:03:07;;;;;;;42.00;16.70;;;;;;;7.44;100.00;98397.22;4388520;32;20079;-76
2022/04/22 00:05:35;;;;;;;34.90;17.25;;;;;;;7.40;100.00;98396.06;4402270;32;20031;-75
2022/04/22 00:08:02;;;;;;;31.70;16.35;;;;;;;7.33;100.00;98385.53;4402560;32;20034;-76
2022/04/22 00:10:29;;;;;;;26.17;15.13;;;;;;;7.03;100.00;98343.03;4386797;32;20038;-78
2022/04/22 00:12:55;;;;;;;30.75;15.05;;;;;;;7.30;100.00;98374.50;4382692;32;20090;-75
2022/04/22 00:15:22;;;;;;;24.85;14.70;;;;;;;7.36;100.00;98378.88;4391599;32;20636;-75
2022/04/22 00:17:50;;;;;;;23.92;14.18;;;;;;;7.43;100.00;98391.03;4389051;32;20046;-76
2022/04/22 00:20:16;;;;;;;24.40;13.75;;;;;;;7.32;100.00;98367.03;4401915;32;20043;-79
2022/04/22 00:22:44;;;;;;;22.65;12.23;;;;;;;7.55;100.00;98384.78;4402454;32;20030;-76
2022/04/22 00:25:13;;;;;;;24.65;13.77;;;;;;;7.60;100.00;98385.66;4402310;32;20038;-75
2022/04/22 00:27:40;;;;;;;19.23;12.82;;;;;;;7.65;100.00;98376.87;4402941;32;20417;-75
2022/04/22 00:30:09;;;;;;;25.45;11.93;;;;;;;7.83;100.00;98383.81;4402081;32;20056;-75
2022/04/22 00:32:37;;;;;;;23.75;13.48;;;;;;;7.85;100.00;98386.25;4386189;32;20176;-76
2022/04/22 00:35:05;;;;;;;21.80;12.63;;;;;;;7.82;100.00;98382.22;4389368;32;20069;-75
2022/04/22 00:37:32;;;;;;;17.52;11.70;;;;;;;7.91;100.00;98380.72;4401888;32;20056;-75
2022/04/22 00:39:58;;;;;;;21.98;11.75;;;;;;;7.67;100.00;98341.81;4402173;32;20046;-75
2022/04/22 00:42:28;;;;;;;22.98;11.57;;;;;;;7.92;100.00;98377.00;4400569;32;20039;-77
2022/04/22 00:44:56;;;;;;;21.05;11.55;;;;;;;7.92;100.00;98382.34;4402085;32;20043;-75
2022/04/22 00:47:23;;;;;;;19.80;10.65;;;;;;;7.51;100.00;98296.06;4388415;32;20413;-75
2022/04/22 00:49:51;;;;;;;18.92;9.98;;;;;;;7.98;100.00;98359.91;4400780;32;20458;-76
2022/04/22 00:52:19;;;;;;;12.37;8.48;;;;;;;8.03;100.00;98366.41;4403035;32;20034;-76
2022/04/22 00:54:47;;;;;;;14.00;8.25;;;;;;;7.89;100.00;98323.87;4398889;32;20082;-76
2022/04/22 00:57:16;;;;;;;14.75;8.90;;;;;;;8.14;100.00;98355.56;4401290;32;20904;-76
2022/04/22 00:59:48;;;;;;;16.58;9.40;;;;;;;8.09;100.00;98350.13;4400885;32;20026;-75
2022/04/22 01:02:15;;;;;;;15.20;9.32;;;;;;;8.02;100.00;98349.50;4388018;32;20080;-76
2022/04/22 01:10:12;;;;;;;16.87;9.82;;;;;;;7.92;100.00;98315.34;4398215;32;20027;-75
2022/04/22 01:12:39;;;;;;;17.15;9.77;;;;;;;8.07;100.00;98335.34;4401923;32;20065;-76
2022/04/22 01:15:06;;;;;;;11.93;8.18;;;;;;;8.14;100.00;98335.97;4400844;32;20461;-76
2022/04/22 01:17:33;;;;;;;13.70;9.05;;;;;;;8.14;100.00;98335.97;4386424;32;20043;-76
2022/04/22 01:19:59;;;;;;;13.15;8.20;;;;;;;8.17;100.00;98338.16;4386298;32;20031;-77
2022/04/22 01:22:27;;;;;;;27.37;8.98;;;;;;;8.18;100.00;98347.81;4400601;32;20027;-76
2022/04/22 01:24:57;;;;;;;12.98;8.32;;;;;;;8.14;100.00;98333.28;4401854;32;20364;-76
2022/04/22 01:27:27;;;;;;;15.02;7.65;;;;;;;8.18;100.00;98347.81;4400821;32;20055;-75
2022/04/22 01:29:53;;;;;;;13.48;8.38;;;;;;;7.81;100.00;98310.91;4399917;32;20345;-78
2022/04/22 01:32:20;;;;;;;20.48;9.50;;;;;;;7.97;100.00;98328.78;4386619;32;20368;-76
2022/04/22 01:34:47;;;;;;;15.80;8.20;;;;;;;7.95;100.00;98314.03;4401853;32;20322;-76
2022/04/22 01:37:14;;;;;;;17.30;9.48;;;;;;;7.92;100.00;98307.28;4388477;32;20019;-76
2022/04/22 01:39:40;;;;;;;14.65;9.48;;;;;;;8.15;100.00;98345.63;4402528;32;20363;-76
2022/04/22 01:42:07;;;;;;;16.08;8.80;;;;;;;8.06;100.00;98339.91;4386323;32;20068;-77
2022/04/22 01:44:35;;;;;;;16.60;8.88;;;;;;;8.15;100.00;98348.31;4402206;32;20050;-76
2022/04/22 01:47:03;;;;;;;12.65;8.25;;;;;;;8.08;100.00;98336.97;4401204;32;20031;-76
2022/04/22 01:49:30;;;;;;;15.40;8.13;;;;;;;8.10;100.00;98345.56;4400556;32;20448;-76
2022/04/22 01:51:57;;;;;;;19.87;7.93;;;;;;;7.95;100.00;98349.69;4387612;32;20052;-77
2022/04/22 01:54:24;;;;;;;12.45;7.78;;;;;;;7.83;100.00;98340.94;4401034;32;20306;-77
2022/04/22 01:56:51;;;;;;;18.62;8.75;;;;;;;7.86;100.00;98356.53;4401253;32;20062;-77
2022/04/22 01:59:17;;;;;;;19.50;7.68;;;;;;;7.97;100.00;98342.19;4388564;32;20379;-77
2022/04/22 02:01:44;;;;;;;13.93;8.65;;;;;;;7.97;100.00;98339.50;4401116;32;20064;-77
2022/04/22 02:04:10;;;;;;;12.68;8.82;;;;;;;7.79;100.00;98302.31;4387239;32;20031;-78
2022/04/22 02:06:37;;;;;;;16.45;9.40;;;;;;;7.55;100.00;98259.69;4387140;32;20026;-77
2022/04/22 02:09:03;;;;;;;18.92;9.35;;;;;;;7.90;100.00;98298.69;4388633;32;20015;-77
2022/04/22 02:11:30;;;;;;;19.05;8.02;;;;;;;7.73;100.00;98271.97;4400434;32;20058;-76
2022/04/22 02:13:56;;;;;;;22.40;9.02;;;;;;;7.96;100.00;98313.78;4402851;32;20055;-77
2022/04/22 02:16:22;;;;;;;13.65;8.18;;;;;;;7.85;100.00;98311.22;4385368;32;20488;-76
2022/04/22 02:18:49;;;;;;;12.80;7.62;;;;;;;7.61;100.00;98287.34;4395808;32;20050;-76
2022/04/22 02:21:16;;;;;;;16.85;8.60;;;;;;;7.79;100.00;98324.56;4402100;32;20348;-76
2022/04/22 02:23:42;;;;;;;19.48;10.30;;;;;;;7.77;100.00;98326.69;4395122;32;20060;-75
2022/04/22 02:26:09;;;;;;;14.98;8.15;;;;;;;7.69;100.00;98303.00;4404165;32;20043;-76
2022/04/22 02:28:42;;;;;;;15.38;9.70;;;;;;;7.73;100.00;98308.66;4404469;32;20094;-75
2022/04/22 02:31:10;;;;;;;22.58;10.82;;;;;;;7.89;100.00;98334.59;4403264;32;20039;-75
2022/04/22 02:33:39;;;;;;;11.93;8.68;;;;;;;7.86;100.00;98340.44;4403922;32;20441;-75
2022/04/22 02:36:07;;;;;;;15.48;9.48;;;;;;;7.67;100.00;98299.75;4390408;32;20082;-77
2022/04/22 02:38:34;;;;;;;15.85;8.95;;;;;;;7.88;100.00;98327.62;4393772;32;20056;-75
2022/04/22 02:46:32;;;;;;;14.32;7.65;;;;;;;7.87;100.00;98315.28;4390127;32;20059;-75
2022/04/22 02:49:05;;;;;;;13.62;7.75;;;;;;;8.02;100.00;98333.41;4402974;32;20056;-75
2022/04/22 02:51:31;;;;;;;13.32;8.02;;;;;;;7.96;100.00;98329.88;4403330;32;20031;-75
2022/04/22 02:53:58;;;;;;;18.80;8.30;;;;;;;8.05;100.00;98332.09;4401388;32;20054;-78
2022/04/22 02:56:25;;;;;;;17.27;7.68;;;;;;;7.79;100.00;98284.34;4403506;32;20376;-75
2022/04/22 02:58:52;;;;;;;20.75;8.32;;;;;;;7.93;100.00;98314.28;4403722;32;20038;-75
2022/04/22 03:01:18;;;;;;;14.90;7.43;;;;;;;8.02;100.00;98324.56;4403441;32;20064;-74
2022/04/22 03:03:46;;;;;;;12.98;8.27;;;;;;;7.93;100.00;98325.00;4404392;32;20068;-75
2022/04/22 03:06:12;;;;;;;26.62;12.05;;;;;;;7.99;100.00;98334.75;4402171;32;20053;-78
2022/04/22 03:08:39;;;;;;;30.80;12.25;;;;;;;8.03;100.00;98334.25;4388659;32;20050;-76
2022/04/22 03:11:06;;;;;;;33.15;16.65;;;;;;;8.07;100.00;98329.97;4402018;32;20092;-75
2022/04/22 03:13:33;;;;;;;32.88;16.10;;;;;;;8.07;100.00;98332.66;4403031;32;20053;-75
2022/04/22 03:16:02;;;;;;;29.92;12.32;;;;;;;7.91;100.00;98300.31;4401389;32;20072;-75
2022/04/22 03:18:28;;;;;;;14.57;9.00;;;;;;;7.90;100.00;98296.03;4407056;32;20070;-75
2022/04/22 03:20:56;;;;;;;15.13;9.27;;;;;;;8.09;100.00;98333.22;4417116;32;20185;-76
2022/04/22 03:23:23;;;;;;;13.15;8.60;;;;;;;7.81;100.00;98314.38;4406868;32;20091;-75
2022/04/22 03:25:50;;;;;;;12.52;7.65;;;;;;;7.91;100.00;98321.75;4406994;32;20102;-75
2022/04/22 03:28:17;;;;;;;16.45;8.30;;;;;;;7.95;100.00;98333.59;4414904;32;20097;-78
2022/04/22 03:30:43;;;;;;;18.30;8.73;;;;;;;7.74;100.00;98302.25;4402920;32;20094;-75
2022/04/22 03:33:09;;;;;;;13.60;8.27;;;;;;;8.00;100.00;98339.03;4409490;32;20129;-75
2022/04/22 03:35:36;;;;;;;13.65;8.25;;;;;;;7.47;100.00;98257.44;4404569;32;20046;-76
2022/04/22 03:38:02;;;;;;;17.20;9.25;;;;;;;7.63;100.00;98287.91;4416084;32;20097;-75
2022/04/22 03:40:29;;;;;;;17.35;10.48;;;;;;;7.92;100.00;98336.78;4409976;32;20110;-75
2022/04/22 03:42:55;;;;;;;21.27;10.05;;;;;;;7.78;100.00;98314.09;4401140;32;20446;-76
2022/04/22 03:45:22;;;;;;;16.05;9.88;;;;;;;7.75;100.00;98325.31;4414442;32;20156;-75
2022/04/22 03:47:48;;;;;;;16.40;9.75;;;;;;;7.57;100.00;98300.41;4414642;32;20086;-76
2022/04/22 03:50:15;;;;;;;21.98;11.07;;;;;;;7.59;100.00;98313.56;4410289;32;20102;-79
2022/04/22 03:52:42;;;;;;;17.60;9.05;;;;;;;7.45;100.00;98291.69;4412128;32;20097;-75
2022/04/22 03:55:09;;;;;;;17.40;10.00;;;;;;;7.72;100.00;98333.84;4411634;32;20111;-76
2022/04/22 04:00:21;;;;;;;15.55;10.23;;;;;;;7.40;100.00;98307.69;4411166;32;20097;-76
2022/04/22 04:02:48;;;;;;;16.70;10.80;;;;;;;7.63;100.00;98330.78;4413235;32;21060;-75
2022/04/22 04:05:15;;;;;;;19.90;11.75;;;;;;;7.43;100.00;98299.16;4398774;32;20378;-76
2022/04/22 04:07:42;;;;;;;22.65;11.50;;;;;;;7.49;100.00;98311.56;4390201;32;20030;-75
2022/04/22 04:18:32;;;;;;;19.27;11.07;;;;;;;7.63;100.00;98353.03;4401883;32;20061;-73
2022/04/22 04:23:46;;;;;;;19.55;10.90;;;;;;;7.50;100.00;98315.87;4401681;32;20050;-73
2022/04/22 04:26:15;;;;;;;16.83;10.50;;;;;;;7.76;100.00;98367.12;4400874;32;20043;-73
2022/04/22 04:28:43;;;;;;;20.62;11.77;;;;;;;7.72;100.00;98356.09;4390265;32;20195;-75
2022/04/22 04:31:13;;;;;;;20.65;10.30;;;;;;;7.79;100.00;98361.28;4386248;32;20082;-77
2022/04/22 04:33:41;;;;;;;17.98;10.77;;;;;;;7.52;100.00;98313.75;4387831;32;20051;-73
2022/04/22 04:36:10;;;;;;;20.37;10.73;;;;;;;7.84;100.00;98353.31;4401579;32;20423;-72
2022/04/22 04:38:41;;;;;;;24.87;9.77;;;;;;;7.59;100.00;98309.00;4401026;32;20039;-73
2022/04/22 04:41:09;;;;;;;18.35;10.07;;;;;;;7.75;100.00;98349.41;4400691;32;20046;-79
2022/04/22 04:43:38;;;;;;;27.15;10.23;;;;;;;7.76;100.00;98345.69;4399796;32;20219;-73
2022/04/22 04:46:05;;;;;;;19.77;10.25;;;;;;;7.86;100.00;98347.69;4401865;32;20382;-74
2022/04/22 04:48:33;;;;;;;17.40;8.85;;;;;;;7.82;100.00;98339.34;4401225;32;20050;-72
2022/04/22 04:51:00;;;;;;;18.80;10.48;;;;;;;7.81;100.00;98343.06;4387263;32;20035;-75
2022/04/22 04:53:26;;;;;;;21.85;10.35;;;;;;;7.81;100.00;98332.34;4399171;32;20440;-73
2022/04/22 04:55:53;;;;;;;18.58;9.20;;;;;;;7.82;100.00;98342.81;4386629;32;20072;-73
2022/04/22 04:58:20;;;;;;;18.15;9.75;;;;;;;7.89;100.00;98339.97;4400297;32;20046;-73
2022/04/22 05:00:47;;;;;;;18.70;10.32;;;;;;;7.97;100.00;98347.56;4399277;32;20031;-73
2022/04/22 05:03:20;;;;;;;18.77;9.70;;;;;;;7.98;100.00;98349.19;4398444;32;20068;-74
2022/04/22 05:05:46;;;;;;;14.57;8.75;;;;;;;7.73;100.00;98320.19;4400844;32;20081;-73
2022/04/22 05:08:13;;;;;;;18.65;9.40;;;;;;;7.99;100.00;98361.53;4400332;32;20383;-73
2022/04/22 05:10:40;;;;;;;17.30;9.77;;;;;;;7.82;100.00;98350.88;4387049;32;20027;-72
2022/04/22 05:13:06;;;;;;;16.35;9.48;;;;;;;7.97;100.00;98360.16;4386338;32;20051;-73
2022/04/22 05:15:33;;;;;;;15.82;8.95;;;;;;;8.00;100.00;98365.03;4396997;32;20023;-73
2022/04/22 05:18:02;;;;;;;15.70;9.70;;;;;;;7.71;100.00;98326.88;4387181;32;20035;-73
2022/04/22 05:20:29;;;;;;;21.50;10.57;;;;;;;7.80;100.00;98331.56;4402262;32;20035;-73
2022/04/22 05:22:58;;;;;;;14.40;10.27;;;;;;;8.09;100.00;98360.03;4397419;32;20022;-72
2022/04/22 05:25:25;;;;;;;15.30;9.10;;;;;;;8.18;100.00;98358.53;4387075;32;20445;-76
2022/04/22 05:27:51;;;;;;;18.27;10.50;;;;;;;8.19;100.00;98354.81;4400026;32;20043;-73
2022/04/22 05:33:03;;;;;;;17.42;10.32;;;;;;;8.19;100.00;98349.44;4394973;32;20043;-76
2022/04/22 05:35:30;;;;;;;17.98;11.40;;;;;;;7.94;100.00;98323.94;4400325;32;20034;-72
2022/04/22 05:38:02;;;;;;;15.30;11.02;;;;;;;8.25;100.00;98369.91;4387712;32;20043;-72
2022/04/22 05:40:33;;;;;;;;;;;;;;;8.31;100.00;98368.91;4390454;32;20046;-72
2022/04/22 05:43:00;;;;;;;17.40;10.55;;;;;;;8.27;100.00;98373.12;4400739;32;20278;-76
2022/04/22 05:45:35;;;;;;;19.30;10.68;;;;;;;8.09;100.00;98338.56;4388585;32;20047;-73
2022/04/22 05:48:01;;;;;;;23.20;11.85;;;;;;;8.10;100.00;98334.84;4400633;32;20038;-72
2022/04/22 05:50:29;;;;;;;24.00;11.38;;;;;;;8.40;100.00;98381.84;4401286;32;20450;-73
2022/04/22 05:52:56;;;;;;;16.05;10.90;;;;;;;8.13;100.00;98339.72;4401336;32;20481;-73
2022/04/22 05:55:25;;;;;;;20.50;12.93;;;;;;;8.35;100.00;98379.94;4399966;32;20068;-75
2022/04/22 05:57:53;;;;;;;19.85;10.73;;;;;;;8.29;100.00;98371.00;4388916;32;20187;-73
2022/04/22 06:00:24;;;;;;;18.40;11.02;;;;;;;8.21;100.00;98368.75;4402101;32;20069;-74
2022/04/22 06:02:52;;;;;;;18.17;10.88;;;;;;;8.15;100.00;98370.59;4399235;32;20072;-73
2022/04/22 06:05:20;;;;;;;13.73;9.00;;;;;;;8.16;100.00;98377.56;4393395;32;20348;-73
2022/04/22 06:07:48;;;;;;;14.82;8.65;;;;;;;8.21;100.00;98378.69;4396974;32;20946;-73
2022/04/22 06:10:32;;;;;;;14.10;8.55;;;;;;;8.08;100.00;98379.88;4402691;32;20132;-72
2022/04/22 06:13:00;;;;;;;11.02;7.55;;;;;;;8.15;100.00;98375.94;4401735;32;20475;-74
2022/04/22 06:15:27;;;;;;;8.63;6.53;;;;;;;7.70;100.00;98352.84;4402904;32;20124;-74
2022/04/22 06:17:54;;;;;;;7.50;5.68;;;;;;;7.90;100.00;98381.78;4403118;32;20051;-72
2022/04/22 06:20:21;;;;;;;9.85;5.12;;;;;;;7.96;100.00;98383.50;4403625;32;20429;-72
2022/04/22 06:22:48;;;;;;;8.50;4.78;;;;;;;7.80;100.00;98393.19;4402408;32;20043;-76
2022/04/22 06:25:14;;;;;;;8.10;4.53;;;;;;;7.67;100.00;98347.16;4386538;32;20035;-75
2022/04/22 06:27:43;;;;;;;7.05;4.70;;;;;;;7.87;100.00;98390.34;4396185;32;20069;-74
2022/04/22 06:30:19;;;;;;;5.03;4.53;;;;;;;7.70;100.00;98342.13;4387127;32;20426;-74
2022/04/22 06:32:48;;;;;;;6.12;3.70;;;;;;;8.14;100.00;98377.00;4416150;32;20100;-75
2022/04/22 06:35:15;;;;;;;4.12;3.53;;;;;;;8.27;100.00;98365.09;4415692;32;20058;-74
2022/04/22 06:37:45;;;;;;;2.50;2.30;;;;;;;8.28;100.00;98357.84;4402564;32;20084;-73
2022/04/22 06:45:51;;;;;;;3.22;2.42;;;;;;;8.03;100.00;98318.16;4401852;32;20080;-77
2022/04/22 06:48:21;;;;;;;2.20;1.70;;;;;;;8.26;100.00;98358.09;4386997;32;20034;-75
2022/04/22 06:50:49;;;;;;;4.60;2.17;;;;;;;8.68;100.00;98362.87;4393659;32;20038;-73
2022/04/22 06:53:17;;;;;;;5.03;1.20;;;;;;;8.29;100.00;98316.56;4408945;32;20082;-73
2022/04/22 06:55:46;;;;;;;1.58;1.45;;;;;;;8.62;100.00;98358.50;4410820;32;20072;-73
2022/04/22 06:58:15;;;;;;;3.00;1.30;;;;;;;8.30;100.00;98367.25;4402096;32;20048;-74
2022/04/22 07:00:43;;;;;;;1.55;1.45;;;;;;;8.27;100.00;98373.12;4416835;32;20076;-74
2022/04/22 07:03:12;;;;;;;2.72;1.33;;;;;;;8.14;100.00;98385.03;4417828;32;20084;-73
2022/04/22 07:05:39;;;;;;;1.33;1.20;;;;;;;8.48;100.00;98379.56;4402833;32;20042;-74
2022/04/22 07:08:13;;;;;;;1.48;1.33;;;;;;;8.18;100.00;98315.63;4380167;32;20201;-74
2022/04/22 07:10:48;;;;;;;1.95;1.60;;;;;;;8.47;100.00;98334.19;4397239;32;20077;-72
2022/04/22 07:13:16;;;;;;;2.60;1.20;;;;;;;8.70;100.00;98382.22;4401814;32;20056;-73
2022/04/22 07:15:48;;;;;;;1.52;1.40;;;;;;;9.13;100.00;98390.38;4388548;32;20428;-73
2022/04/22 07:18:16;;;;;;;8.05;1.35;;;;;;;8.29;100.00;98301.25;4400409;32;20383;-73
2022/04/22 07:20:43;;;;;;;1.00;1.00;;;;;;;8.47;100.00;98350.28;4387035;32;20067;-73
2022/04/22 07:23:12;;;;;;;0.98;0.98;;;;;;;8.81;100.00;98367.00;4384574;32;20043;-73
2022/04/22 07:25:39;;;;;;;0.70;0.70;;;;;;;9.34;100.00;98406.69;4403040;32;20432;-73
2022/04/22 07:28:06;;;;;;;5.72;1.30;;;;;;;9.28;100.00;98362.84;4417774;32;20469;-73
2022/04/22 07:30:32;;;;;;;0.90;0.90;;;;;;;9.35;100.00;98395.69;4383634;32;20057;-72
2022/04/22 07:32:59;;;;;;;1.17;1.00;;;;;;;8.93;100.00;98348.03;4373329;32;20035;-73
2022/04/22 07:35:26;;;;;;;8.43;1.52;;;;;;;8.90;100.00;98391.50;4387680;32;20205;-72
2022/04/22 07:37:54;;;;;;;1.20;1.10;;;;;;;9.05;100.00;98386.28;4401548;32;20065;-73
2022/04/22 07:40:21;;;;;;;1.33;1.20;;;;;;;9.03;100.00;98364.25;4383904;32;20030;-74
2022/04/22 07:48:22;;;;;;;1.27;1.27;;;;;;;9.26;100.00;98403.38;4414769;32;20043;-76
2022/04/22 07:50:49;;;;;;;1.52;1.20;;;;;;;8.96;100.00;98352.91;4417317;32;20050;-75
2022/04/22 07:53:17;;;;;;;1.30;1.20;;;;;;;8.89;100.00;98376.50;4402212;32;20067;-75
2022/04/22 07:55:44;;;;;;;2.65;1.60;;;;;;;9.18;100.00;98411.12;4416064;32;20042;-75
2022/04/22 07:58:13;;;;;;;1.75;1.20;;;;;;;9.11;100.00;98399.75;4415102;32;20039;-77
2022/04/22 08:04:27;;;;;;;2.20;1.17;;;;;;;8.79;100.00;98411.28;4415526;32;20395;-75
2022/04/22 08:06:54;;;;;;;1.70;1.60;;;;;;;8.56;100.00;98383.66;4402150;32;20046;-75
2022/04/22 08:09:27;;;;;;;5.87;1.45;;;;;;;8.46;100.00;98386.25;4403104;32;20060;-75
2022/04/22 08:11:54;;;;;;;1.67;1.52;;;;;;;8.65;100.00;98344.59;4389659;32;20072;-76
2022/04/22 08:14:21;;;;;;;2.03;1.60;;;;;;;9.33;100.00;98421.97;4401872;32;20433;-75
2022/04/22 08:16:48;;;;;;;1.98;1.33;;;;;;;9.19;100.00;98416.22;4416354;32;20030;-75
2022/04/22 08:19:15;;;;;;;1.23;1.23;;;;;;;9.56;100.00;98414.63;4399443;32;20034;-75
2022/04/22 08:21:42;;;;;;;1.40;1.30;;;;;;;9.59;100.00;98419.50;4401782;32;20366;-74
2022/04/22 08:24:10;;;;;;;1.80;1.37;;;;;;;9.57;100.00;98418.94;4402283;32;20039;-74
2022/04/22 08:26:38;;;;;;;4.72;1.23;;;;;;;9.33;100.00;98378.97;4415882;32;20398;-75
2022/04/22 08:29:05;;;;;;;1.75;1.65;;;;;;;9.44;100.00;98379.88;4400878;32;20026;-78
2022/04/22 08:31:32;;;;;;;2.62;1.52;;;;;;;9.64;100.00;98411.47;4399636;32;20045;-75
2022/04/22 08:33:59;;;;;;;1.60;1.50;;;;;;;9.64;100.00;98373.84;4400379;32;20050;-75
2022/04/22 08:36:30;;;;;;;1.33;1.12;;;;;;;9.45;100.00;98368.88;4386874;32;20027;-76
2022/04/22 08:38:57;;;;;;;1.60;1.50;;;;;;;9.67;100.00;98408.25;4400622;32;20031;-76
2022/04/22 08:41:25;;;;;;;2.08;1.40;;;;;;;9.50;100.00;98378.03;4384403;32;20047;-74
2022/04/22 08:43:52;;;;;;;1.65;1.50;;;;;;;9.88;100.00;98417.25;4387633;32;20038;-74
2022/04/22 08:51:56;;;;;;;1.50;1.40;;;;;;;9.60;100.00;98426.47;4401509;32;20051;-75
2022/04/22 08:54:26;;;;;;;1.67;1.58;;;;;;;9.38;100.00;98416.66;4401504;32;20450;-75
2022/04/22 08:56:54;;;;;;;2.70;1.80;;;;;;;9.16;100.00;98375.63;4398471;32;20023;-77
2022/04/22 08:59:25;;;;;;;1.45;1.45;;;;;;;9.32;100.00;98415.00;4388207;32;20053;-73
2022/04/22 09:01:56;;;;;;;1.40;1.30;;;;;;;9.76;100.00;98420.12;4388077;32;20056;-73
2022/04/22 09:04:22;;;;;;;2.30;1.62;;;;;;;9.84;100.00;98407.28;4400059;32;20046;-73
2022/04/22 09:06:50;;;;;;;3.83;1.90;;;;;;;9.60;100.00;98362.78;4401408;32;20046;-74
2022/04/22 09:09:18;;;;;;;1.90;1.75;;;;;;;9.79;100.00;98419.62;4398374;32;20448;-75
2022/04/22 09:11:45;;;;;;;4.47;1.67;;;;;;;9.78;100.00;98427.94;4399784;32;20039;-73
2022/04/22 09:14:19;;;;;;;2.25;1.50;;;;;;;9.68;100.00;98374.91;4400631;32;20080;-74
2022/04/22 09:16:46;;;;;;;5.20;2.47;;;;;;;9.80;100.00;98415.87;4401170;32;20038;-74
2022/04/22 09:19:13;;;;;;;1.80;1.65;;;;;;;9.89;100.00;98420.75;4397223;32;20043;-75
2022/04/22 09:21:39;;;;;;;2.15;2.05;;;;;;;9.91;100.00;98432.88;4404907;32;20793;-73
2022/04/22 09:24:13;;;;;;;4.37;2.05;;;;;;;10.09;100.00;98434.31;4396492;32;20384;-74
2022/04/22 09:26:40;;;;;;;2.75;2.05;;;;;;;10.07;100.00;98409.56;4409651;32;20079;-74
2022/04/22 09:29:10;;;;;;;7.93;2.25;;;;;;;9.82;100.00;98383.34;4400931;32;20118;-78
2022/04/22 09:31:47;;;;;;;3.22;2.55;;;;;;;10.25;100.00;98431.72;4401144;32;20131;-74
2022/04/22 09:34:14;;;;;;;2.35;2.15;;;;;;;10.05;100.00;98433.22;4391129;32;20053;-73
2022/04/22 09:45:09;;;;;;;4.87;3.03;;;;;;;9.70;100.00;98399.69;4399523;32;20053;-73
2022/04/22 09:47:36;;;;;;;3.53;3.20;;;;;;;9.66;100.00;98438.87;4402051;32;20380;-74
2022/04/22 09:50:12;;;;;;;4.47;3.70;;;;;;;10.02;100.00;98441.81;4399825;32;20042;-75
2022/04/22 09:52:46;;;;;;;4.43;3.90;;;;;;;9.90;100.00;98433.13;4400373;32;20046;-75
2022/04/22 09:55:17;;;;;;;4.80;3.83;;;;;;;9.68;100.00;98417.94;4389076;32;20065;-75
2022/04/22 09:57:56;;;;;;;4.80;4.15;;;;;;;9.45;100.00;98419.12;4401508;32;20323;-77
2022/04/22 10:00:24;;;;;;;5.37;3.60;;;;;;;9.66;100.00;98436.19;4387702;32;20415;-74
2022/04/22 10:02:53;;;;;;;5.12;4.62;;;;;;;10.02;100.00;98451.75;4397108;32;20077;-74
2022/04/22 10:05:21;;;;;;;7.22;5.10;;;;;;;9.58;100.00;98431.31;4390398;32;20445;-76
2022/04/22 10:07:53;;;;;;;5.25;4.15;;;;;;;9.64;100.00;98449.91;4385407;32;20040;-77
2022/04/22 10:10:25;;;;;;;6.35;4.93;;;;;;;10.09;100.00;98455.84;4388192;32;20055;-76
2022/04/22 10:12:54;;;;;;;4.78;4.03;;;;;;;10.09;100.00;98450.44;4386590;32;20058;-76
2022/04/22 10:15:24;;;;;;;5.03;4.53;;;;;;;10.10;100.00;98414.44;4400154;32;20042;-79
2022/04/22 10:17:52;;;;;;;8.02;4.60;;;;;;;9.98;100.00;98424.56;4400509;32;20518;-75
2022/04/22 10:20:19;;;;;;;8.93;4.95;;;;;;;10.32;100.00;98443.03;4396887;32;20063;-74
2022/04/22 10:22:49;;;;;;;5.37;4.80;;;;;;;10.66;100.00;98450.75;4399350;32;20064;-75
2022/04/22 10:25:16;;;;;;;4.15;3.75;;;;;;;10.68;100.00;98440.53;4400645;32;20078;-76
2022/04/22 10:27:44;;;;;;;4.75;4.35;;;;;;;10.72;100.00;98441.59;4395971;32;20047;-76
2022/04/22 10:30:13;;;;;;;4.70;4.12;;;;;;;10.75;100.00;98395.28;4401537;32;20076;-75
2022/04/22 10:32:47;;;;;;;7.87;4.43;;;;;;;10.68;100.00;98397.44;4399236;32;20057;-75
2022/04/22 10:35:15;;;;;;;7.05;3.80;;;;;;;10.65;100.00;98422.19;4399997;32;20411;-76
2022/04/22 10:37:44;;;;;;;6.40;3.62;;;;;;;10.54;100.00;98387.16;4398167;32;20039;-75
2022/04/22 10:40:23;;;;;;;4.37;3.97;;;;;;;10.83;100.00;98432.50;4391102;32;20064;-76
2022/04/22 10:42:51;;;;;;;3.08;2.87;;;;;;;10.58;100.00;98397.41;4387711;32;20341;-75
2022/04/22 10:48:26;;;;;;;3.75;3.40;;;;;;;10.56;100.00;98421.09;4397448;32;20075;-74
2022/04/22 10:51:03;;;;;;;5.00;3.87;;;;;;;10.69;100.00;98424.09;4404164;32;20345;-77
2022/04/22 10:53:34;;;;;;;3.35;3.05;;;;;;;10.72;100.00;98414.66;4418233;32;20060;-74
2022/04/22 10:59:15;;;;;;;3.90;3.60;;;;;;;11.48;100.00;98421.22;4418244;32;20054;-75
2022/04/22 11:01:44;;;;;;;3.60;3.20;;;;;;;12.24;100.00;98386.28;4404881;32;20133;-74
2022/04/22 11:04:24;;;;;;;6.15;3.60;;;;;;;12.27;100.00;98431.59;4402346;32;20050;-78
2022/04/22 11:06:50;;;;;;;3.97;3.58;;;;;;;11.48;100.00;98429.31;4403461;32;20387;-74
2022/04/22 11:09:30;;;;;;;3.87;3.12;;;;;;;12.06;100.00;98420.06;4400880;32;20069;-74
2022/04/22 11:11:58;;;;;;;3.15;2.90;;;;;;;12.86;100.00;98390.28;4399920;32;20034;-77
2022/04/22 11:14:32;;;;;;;5.07;2.90;;;;;;;12.94;100.00;98429.44;4388920;32;20039;-75
2022/04/22 11:17:33;;;;;;;6.93;3.45;;;;;;;12.62;100.00;98395.56;4403315;32;20472;-74
2022/04/22 11:20:00;;;;;;;3.87;3.47;;;;;;;13.03;100.00;98433.13;4397629;32;20043;-74
2022/04/22 11:22:58;;;;;;;3.97;3.22;;;;;;;13.28;100.00;98393.50;4402948;32;20047;-74
2022/04/22 11:25:26;;;;;;;3.30;3.00;;;;;;;13.60;100.00;98440.84;4384727;32;20080;-77
2022/04/22 11:27:57;;;;;;;4.50;2.55;;;;;;;13.02;100.00;98409.09;4418262;32;20923;-74
2022/04/22 11:30:27;;;;;;;6.97;3.08;;;;;;;13.09;100.00;98404.97;4393303;32;20034;-73
2022/04/22 11:33:02;;;;;;;3.00;2.75;;;;;;;12.43;100.00;98426.97;4397615;32;20498;-73
2022/04/22 11:35:33;;;;;;;2.15;1.95;;;;;;;11.97;100.00;98444.91;4394615;32;20082;-73
2022/04/22 11:38:07;;;;;;;2.47;2.30;;;;;;;11.94;100.00;98445.47;4392306;32;20112;-72
2022/04/22 11:40:39;;;;;;;2.72;2.53;;;;;;;12.24;100.00;98451.88;4394107;32;20061;-74
2022/04/22 11:43:10;;;;;;;2.65;2.45;;;;;;;12.23;100.00;98417.06;4386626;32;20043;-77
2022/04/22 11:45:41;;;;;;;4.30;2.25;;;;;;;12.06;100.00;98418.22;4390292;32;20043;-74
2022/04/22 11:48:09;;;;;;;5.20;2.40;;;;;;;11.69;100.00;98415.81;4387759;32;20039;-73
2022/04/22 11:50:42;;;;;;;3.00;2.12;;;;;;;11.79;100.00;98443.59;4392021;32;20065;-73
2022/04/22 11:53:20;;;;;;;2.40;2.05;;;;;;;12.03;100.00;98442.22;4400502;32;20070;-76
2022/04/22 11:55:48;;;;;;;5.68;2.47;;;;;;;12.23;100.00;98411.66;4401563;32;20113;-76
2022/04/22 11:58:17;;;;;;;3.47;2.60;;;;;;;12.30;100.00;98442.69;4401194;32;20047;-73
2022/04/22 12:06:20;;;;;;;2.53;2.33;;;;;;;11.98;100.00;98435.75;4400713;32;20439;-73
2022/04/22 12:08:54;;;;;;;3.53;2.58;;;;;;;11.28;100.00;98389.72;4400807;32;20064;-75
2022/04/22 12:11:23;;;;;;;3.55;2.33;;;;;;;11.91;100.00;98429.78;4401550;32;20080;-73
2022/04/22 12:13:52;;;;;;;2.55;2.35;;;;;;;12.27;100.00;98429.75;4387709;32;20066;-73
2022/04/22 12:16:26;;;;;;;2.60;2.40;;;;;;;11.84;100.00;98396.91;4386081;32;20132;-73
2022/04/22 12:18:54;;;;;;;3.47;2.80;;;;;;;12.02;100.00;98402.84;4394045;32;20059;-74
2022/04/22 12:21:22;;;;;;;2.50;2.30;;;;;;;12.46;100.00;98426.41;4397152;32;20046;-73
2022/04/22 12:23:51;;;;;;;4.60;3.00;;;;;;;12.58;100.00;98421.50;4385173;32;20100;-73
2022/04/22 12:26:24;;;;;;;2.65;2.45;;;;;;;12.19;100.00;98397.94;4385730;32;20043;-73
2022/04/22 12:29:01;;;;;;;3.25;2.92;;;;;;;12.20;100.00;98431.91;4390118;32;20030;-74
2022/04/22 12:31:30;;;;;;;3.22;3.00;;;;;;;11.27;100.00;98382.69;4399243;32;20072;-73
2022/04/22 12:34:04;;;;;;;4.90;3.28;;;;;;;11.38;100.00;98411.25;4396672;32;20409;-73
2022/04/22 12:36:36;;;;;;;3.90;3.53;;;;;;;11.35;100.00;98413.69;4392431;32;20396;-73
2022/04/22 12:39:04;;;;;;;4.18;3.40;;;;;;;11.38;100.00;98402.38;4386917;32;20058;-73
2022/04/22 12:41:43;;;;;;;3.10;2.80;;;;;;;11.92;100.00;98374.81;4382966;32;20535;-73